sensor_id;sensor_type;location;lat;lon;timestamp;pressure;altitude;pressure_sealevel;temperature;humidity
55460;BME280;41326;45.302;-122.946;2022-12-18T00:01:22;101358.47;;;17.40;44.46
55460;BME280;41326;45.302;-122.946;2022-12-18T00:03:49;101356.85;;;17.34;44.59
55460;BME280;41326;45.302;-122.946;2022-12-18T00:06:20;101361.49;;;17.28;44.74
55460;BME280;41326;45.302;-122.946;2022-12-18T00:08:51;101361.61;;;17.27;44.72
55460;BME280;41326;45.302;-122.946;2022-12-18T00:11:22;101357.01;;;17.24;44.82
55460;BME280;41326;45.302;-122.946;2022-12-18T00:13:51;101357.62;;;17.21;44.91
55460;BME280;41326;45.302;-122.946;2022-12-18T00:16:22;101357.88;;;17.20;44.99
55460;BME280;41326;45.302;-122.946;2022-12-18T00:18:52;101361.67;;;17.20;44.95
55460;BME280;41326;45.302;-122.946;2022-12-18T00:21:22;101361.81;;;17.18;45.14
55460;BME280;41326;45.302;-122.946;2022-12-18T00:23:53;101359.77;;;17.20;45.03
55460;BME280;41326;45.302;-122.946;2022-12-18T00:26:25;101358.93;;;17.16;45.08
55460;BME280;41326;45.302;-122.946;2022-12-18T00:28:53;101355.72;;;17.25;44.87
55460;BME280;41326;45.302;-122.946;2022-12-18T00:31:24;101357.68;;;17.45;44.37
55460;BME280;41326;45.302;-122.946;2022-12-18T00:33:54;101354.10;;;17.56;44.19
55460;BME280;41326;45.302;-122.946;2022-12-18T00:36:26;101350.82;;;17.55;44.26
55460;BME280;41326;45.302;-122.946;2022-12-18T00:38:55;101347.91;;;17.52;44.32
55460;BME280;41326;45.302;-122.946;2022-12-18T00:41:24;101344.40;;;17.59;43.87
55460;BME280;41326;45.302;-122.946;2022-12-18T00:43:54;101335.84;;;17.72;43.75
55460;BME280;41326;45.302;-122.946;2022-12-18T00:46:25;101334.63;;;17.87;43.48
55460;BME280;41326;45.302;-122.946;2022-12-18T00:48:55;101334.44;;;18.04;43.17
55460;BME280;41326;45.302;-122.946;2022-12-18T00:51:25;101337.28;;;18.14;43.01
55460;BME280;41326;45.302;-122.946;2022-12-18T00:53:55;101339.68;;;18.35;42.58
55460;BME280;41326;45.302;-122.946;2022-12-18T00:56:30;101339.41;;;18.30;42.62
55460;BME280;41326;45.302;-122.946;2022-12-18T00:58:55;101338.90;;;18.27;42.65
55460;BME280;41326;45.302;-122.946;2022-12-18T01:01:26;101331.87;;;18.36;42.42
55460;BME280;41326;45.302;-122.946;2022-12-18T01:03:57;101327.63;;;18.46;42.33
55460;BME280;41326;45.302;-122.946;2022-12-18T01:06:27;101325.82;;;18.60;42.11
55460;BME280;41326;45.302;-122.946;2022-12-18T01:08:57;101325.12;;;18.72;41.90
55460;BME280;41326;45.302;-122.946;2022-12-18T01:11:28;101325.72;;;18.75;41.82
55460;BME280;41326;45.302;-122.946;2022-12-18T01:14:02;101326.15;;;18.74;41.82
55460;BME280;41326;45.302;-122.946;2022-12-18T01:16:28;101331.02;;;18.64;41.97
55460;BME280;41326;45.302;-122.946;2022-12-18T01:18:59;101332.04;;;18.67;41.95
55460;BME280;41326;45.302;-122.946;2022-12-18T01:22:36;101329.45;;;18.76;41.96
55460;BME280;41326;45.302;-122.946;2022-12-18T01:25:07;101326.23;;;18.90;41.77
55460;BME280;41326;45.302;-122.946;2022-12-18T01:27:36;101329.27;;;18.84;41.91
55460;BME280;41326;45.302;-122.946;2022-12-18T01:30:08;101328.67;;;18.82;41.87
55460;BME280;41326;45.302;-122.946;2022-12-18T01:32:38;101328.12;;;18.71;42.23
55460;BME280;41326;45.302;-122.946;2022-12-18T01:35:09;101330.22;;;18.78;42.16
55460;BME280;41326;45.302;-122.946;2022-12-18T01:37:39;101332.54;;;18.85;42.14
55460;BME280;41326;45.302;-122.946;2022-12-18T01:40:09;101332.57;;;18.87;42.21
55460;BME280;41326;45.302;-122.946;2022-12-18T01:42:39;101328.94;;;18.80;42.44
55460;BME280;41326;45.302;-122.946;2022-12-18T01:47:43;101325.57;;;18.64;42.75
55460;BME280;41326;45.302;-122.946;2022-12-18T01:50:13;101328.41;;;18.71;42.65
55460;BME280;41326;45.302;-122.946;2022-12-18T01:52:42;101327.66;;;18.83;42.48
55460;BME280;41326;45.302;-122.946;2022-12-18T01:55:12;101326.23;;;18.82;42.61
55460;BME280;41326;45.302;-122.946;2022-12-18T01:57:43;101322.22;;;18.81;42.66
55460;BME280;41326;45.302;-122.946;2022-12-18T02:00:15;101321.65;;;18.76;42.83
55460;BME280;41326;45.302;-122.946;2022-12-18T02:02:43;101325.14;;;18.66;43.01
55460;BME280;41326;45.302;-122.946;2022-12-18T02:05:14;101327.80;;;18.65;42.99
55460;BME280;41326;45.302;-122.946;2022-12-18T02:07:51;101330.86;;;18.77;42.80
55460;BME280;41326;45.302;-122.946;2022-12-18T02:10:19;101327.70;;;18.86;42.73
55460;BME280;41326;45.302;-122.946;2022-12-18T02:12:49;101325.72;;;18.85;42.88
55460;BME280;41326;45.302;-122.946;2022-12-18T02:15:21;101323.97;;;18.78;43.01
55460;BME280;41326;45.302;-122.946;2022-12-18T02:17:50;101323.58;;;18.68;43.25
55460;BME280;41326;45.302;-122.946;2022-12-18T02:20:21;101324.90;;;18.58;43.46
55460;BME280;41326;45.302;-122.946;2022-12-18T02:22:53;101324.54;;;18.70;43.21
55460;BME280;41326;45.302;-122.946;2022-12-18T02:25:25;101324.13;;;18.79;43.10
55460;BME280;41326;45.302;-122.946;2022-12-18T02:27:46;101321.53;;;18.83;43.11
55460;BME280;41326;45.302;-122.946;2022-12-18T02:30:16;101324.08;;;18.82;43.09
55460;BME280;41326;45.302;-122.946;2022-12-18T02:32:48;101326.56;;;18.73;43.28
55460;BME280;41326;45.302;-122.946;2022-12-18T02:35:19;101327.41;;;18.68;43.46
55460;BME280;41326;45.302;-122.946;2022-12-18T02:37:47;101327.36;;;18.53;43.86
55460;BME280;41326;45.302;-122.946;2022-12-18T02:40:17;101326.41;;;18.42;44.22
55460;BME280;41326;45.302;-122.946;2022-12-18T02:42:47;101325.78;;;18.45;44.22
55460;BME280;41326;45.302;-122.946;2022-12-18T02:45:17;101329.94;;;18.60;44.01
55460;BME280;41326;45.302;-122.946;2022-12-18T02:47:49;101328.12;;;18.70;43.88
55460;BME280;41326;45.302;-122.946;2022-12-18T02:50:25;101323.78;;;18.70;43.90
55460;BME280;41326;45.302;-122.946;2022-12-18T02:52:58;101319.79;;;18.67;43.95
55460;BME280;41326;45.302;-122.946;2022-12-18T02:55:28;101314.27;;;18.61;44.07
55460;BME280;41326;45.302;-122.946;2022-12-18T02:57:53;101308.96;;;18.49;44.44
55460;BME280;41326;45.302;-122.946;2022-12-18T03:00:22;101317.12;;;18.42;44.60
55460;BME280;41326;45.302;-122.946;2022-12-18T03:02:55;101319.78;;;18.35;44.84
55460;BME280;41326;45.302;-122.946;2022-12-18T03:05:22;101320.99;;;18.29;45.03
55460;BME280;41326;45.302;-122.946;2022-12-18T03:07:58;101318.85;;;18.29;45.05
55460;BME280;41326;45.302;-122.946;2022-12-18T03:10:25;101314.69;;;18.29;44.98
55460;BME280;41326;45.302;-122.946;2022-12-18T03:12:54;101313.59;;;18.31;45.01
55460;BME280;41326;45.302;-122.946;2022-12-18T03:15:25;101314.25;;;18.47;44.86
55460;BME280;41326;45.302;-122.946;2022-12-18T03:17:57;101316.10;;;18.60;44.62
55460;BME280;41326;45.302;-122.946;2022-12-18T03:20:23;101313.67;;;18.62;44.61
55460;BME280;41326;45.302;-122.946;2022-12-18T03:22:54;101312.16;;;18.55;44.74
55460;BME280;41326;45.302;-122.946;2022-12-18T03:25:23;101315.11;;;18.49;44.85
55460;BME280;41326;45.302;-122.946;2022-12-18T03:27:54;101318.58;;;18.45;44.93
55460;BME280;41326;45.302;-122.946;2022-12-18T03:30:23;101320.67;;;18.40;45.15
55460;BME280;41326;45.302;-122.946;2022-12-18T03:32:58;101319.60;;;18.59;44.61
55460;BME280;41326;45.302;-122.946;2022-12-18T03:35:28;101311.34;;;18.77;44.32
55460;BME280;41326;45.302;-122.946;2022-12-18T03:37:54;101309.35;;;18.82;44.21
55460;BME280;41326;45.302;-122.946;2022-12-18T03:40:29;101311.79;;;18.74;44.44
55460;BME280;41326;45.302;-122.946;2022-12-18T03:42:58;101310.03;;;18.71;44.54
55460;BME280;41326;45.302;-122.946;2022-12-18T03:45:31;101312.67;;;18.60;44.78
55460;BME280;41326;45.302;-122.946;2022-12-18T03:48:00;101313.52;;;18.53;44.95
55460;BME280;41326;45.302;-122.946;2022-12-18T03:50:31;101315.18;;;18.65;44.62
55460;BME280;41326;45.302;-122.946;2022-12-18T03:53:00;101315.03;;;18.77;44.46
55460;BME280;41326;45.302;-122.946;2022-12-18T03:55:27;101313.86;;;18.86;44.25
55460;BME280;41326;45.302;-122.946;2022-12-18T03:57:57;101314.85;;;18.79;44.42
55460;BME280;41326;45.302;-122.946;2022-12-18T04:00:26;101314.33;;;18.72;44.61
55460;BME280;41326;45.302;-122.946;2022-12-18T04:02:57;101317.69;;;18.59;44.97
55460;BME280;41326;45.302;-122.946;2022-12-18T04:05:27;101317.58;;;18.48;45.25
55460;BME280;41326;45.302;-122.946;2022-12-18T04:07:57;101315.07;;;18.45;45.29
55460;BME280;41326;45.302;-122.946;2022-12-18T04:10:28;101314.32;;;18.40;45.41
55460;BME280;41326;45.302;-122.946;2022-12-18T04:13:01;101310.81;;;18.33;45.62
55460;BME280;41326;45.302;-122.946;2022-12-18T04:15:29;101308.94;;;18.26;45.85
55460;BME280;41326;45.302;-122.946;2022-12-18T04:17:59;101307.90;;;18.23;45.96
55460;BME280;41326;45.302;-122.946;2022-12-18T04:20:29;101301.94;;;18.17;46.13
55460;BME280;41326;45.302;-122.946;2022-12-18T04:22:59;101304.75;;;18.10;46.32
55460;BME280;41326;45.302;-122.946;2022-12-18T04:25:30;101309.96;;;18.04;46.51
55460;BME280;41326;45.302;-122.946;2022-12-18T04:28:00;101308.83;;;18.15;46.17
55460;BME280;41326;45.302;-122.946;2022-12-18T04:30:31;101301.79;;;18.39;45.58
55460;BME280;41326;45.302;-122.946;2022-12-18T04:33:02;101295.75;;;18.53;45.23
55460;BME280;41326;45.302;-122.946;2022-12-18T04:35:32;101288.74;;;18.53;45.29
55460;BME280;41326;45.302;-122.946;2022-12-18T04:38:02;101283.78;;;18.49;45.35
55460;BME280;41326;45.302;-122.946;2022-12-18T04:40:36;101287.42;;;18.41;45.50
55460;BME280;41326;45.302;-122.946;2022-12-18T04:43:03;101284.38;;;18.30;45.80
55460;BME280;41326;45.302;-122.946;2022-12-18T04:45:33;101284.24;;;18.22;46.00
55460;BME280;41326;45.302;-122.946;2022-12-18T04:48:05;101279.50;;;18.24;45.87
55460;BME280;41326;45.302;-122.946;2022-12-18T04:50:34;101280.89;;;18.42;45.49
55460;BME280;41326;45.302;-122.946;2022-12-18T04:53:04;101279.27;;;18.57;45.19
55460;BME280;41326;45.302;-122.946;2022-12-18T04:55:34;101277.51;;;18.66;45.02
55460;BME280;41326;45.302;-122.946;2022-12-18T04:58:05;101268.37;;;18.62;45.09
55460;BME280;41326;45.302;-122.946;2022-12-18T05:00:35;101266.20;;;18.53;45.31
55460;BME280;41326;45.302;-122.946;2022-12-18T05:03:07;101266.03;;;18.44;45.53
55460;BME280;41326;45.302;-122.946;2022-12-18T05:05:36;101267.12;;;18.36;45.65
55460;BME280;41326;45.302;-122.946;2022-12-18T05:08:06;101275.01;;;18.35;45.64
55460;BME280;41326;45.302;-122.946;2022-12-18T05:10:37;101277.98;;;18.32;45.76
55460;BME280;41326;45.302;-122.946;2022-12-18T05:13:08;101278.61;;;18.22;46.05
55460;BME280;41326;45.302;-122.946;2022-12-18T05:15:38;101278.89;;;18.15;46.26
55460;BME280;41326;45.302;-122.946;2022-12-18T05:18:09;101276.38;;;18.08;46.42
55460;BME280;41326;45.302;-122.946;2022-12-18T05:20:38;101277.75;;;18.04;46.54
55460;BME280;41326;45.302;-122.946;2022-12-18T05:23:09;101281.99;;;18.00;46.63
55460;BME280;41326;45.302;-122.946;2022-12-18T05:25:39;101286.30;;;17.97;46.60
55460;BME280;41326;45.302;-122.946;2022-12-18T05:28:10;101286.97;;;18.00;46.44
55460;BME280;41326;45.302;-122.946;2022-12-18T05:30:46;101284.95;;;17.95;46.46
55460;BME280;41326;45.302;-122.946;2022-12-18T05:33:10;101283.56;;;17.87;46.67
55460;BME280;41326;45.302;-122.946;2022-12-18T05:35:40;101280.63;;;17.82;46.77
55460;BME280;41326;45.302;-122.946;2022-12-18T05:38:11;101285.13;;;17.80;46.78
55460;BME280;41326;45.302;-122.946;2022-12-18T05:40:41;101286.16;;;17.79;46.77
55460;BME280;41326;45.302;-122.946;2022-12-18T05:43:12;101284.48;;;17.79;46.69
55460;BME280;41326;45.302;-122.946;2022-12-18T05:45:43;101282.92;;;17.78;46.65
55460;BME280;41326;45.302;-122.946;2022-12-18T05:48:13;101279.16;;;17.74;46.78
55460;BME280;41326;45.302;-122.946;2022-12-18T05:50:43;101274.82;;;17.72;46.86
55460;BME280;41326;45.302;-122.946;2022-12-18T05:53:14;101276.16;;;17.69;46.93
55460;BME280;41326;45.302;-122.946;2022-12-18T05:55:45;101272.29;;;17.67;46.90
55460;BME280;41326;45.302;-122.946;2022-12-18T05:58:14;101274.70;;;17.67;46.91
55460;BME280;41326;45.302;-122.946;2022-12-18T06:00:45;101276.26;;;17.66;46.92
55460;BME280;41326;45.302;-122.946;2022-12-18T06:03:14;101275.79;;;17.61;47.03
55460;BME280;41326;45.302;-122.946;2022-12-18T06:05:47;101275.55;;;17.62;46.94
55460;BME280;41326;45.302;-122.946;2022-12-18T06:08:15;101273.77;;;17.61;46.95
55460;BME280;41326;45.302;-122.946;2022-12-18T06:10:50;101274.88;;;17.59;46.98
55460;BME280;41326;45.302;-122.946;2022-12-18T06:13:16;101271.70;;;17.52;47.15
55460;BME280;41326;45.302;-122.946;2022-12-18T06:15:46;101268.02;;;17.50;47.20
55460;BME280;41326;45.302;-122.946;2022-12-18T06:18:17;101273.76;;;17.48;47.21
55460;BME280;41326;45.302;-122.946;2022-12-18T06:23:17;101278.61;;;17.42;47.36
55460;BME280;41326;45.302;-122.946;2022-12-18T06:25:47;101276.84;;;17.43;47.18
55460;BME280;41326;45.302;-122.946;2022-12-18T06:28:18;101280.64;;;17.43;47.03
55460;BME280;41326;45.302;-122.946;2022-12-18T06:30:49;101278.62;;;17.39;47.19
55460;BME280;41326;45.302;-122.946;2022-12-18T06:33:19;101276.10;;;17.41;47.11
55460;BME280;41326;45.302;-122.946;2022-12-18T06:35:49;101278.73;;;17.37;47.22
55460;BME280;41326;45.302;-122.946;2022-12-18T06:38:19;101279.21;;;17.32;47.29
55460;BME280;41326;45.302;-122.946;2022-12-18T06:40:49;101279.38;;;17.35;47.17
55460;BME280;41326;45.302;-122.946;2022-12-18T06:43:20;101278.46;;;17.29;47.31
55460;BME280;41326;45.302;-122.946;2022-12-18T06:45:50;101279.67;;;17.26;47.34
55460;BME280;41326;45.302;-122.946;2022-12-18T06:48:21;101278.34;;;17.25;47.26
55460;BME280;41326;45.302;-122.946;2022-12-18T06:50:51;101276.45;;;17.23;47.25
55460;BME280;41326;45.302;-122.946;2022-12-18T06:53:21;101275.52;;;17.21;47.35
55460;BME280;41326;45.302;-122.946;2022-12-18T06:55:51;101278.96;;;17.21;47.31
55460;BME280;41326;45.302;-122.946;2022-12-18T06:58:22;101285.39;;;17.18;47.41
55460;BME280;41326;45.302;-122.946;2022-12-18T07:00:52;101286.31;;;17.15;47.43
55460;BME280;41326;45.302;-122.946;2022-12-18T07:03:22;101284.47;;;17.14;47.42
55460;BME280;41326;45.302;-122.946;2022-12-18T07:05:53;101286.82;;;17.11;47.45
55460;BME280;41326;45.302;-122.946;2022-12-18T07:08:23;101285.65;;;17.10;47.30
55460;BME280;41326;45.302;-122.946;2022-12-18T07:10:54;101285.54;;;17.06;47.47
55460;BME280;41326;45.302;-122.946;2022-12-18T07:13:24;101285.38;;;17.05;47.48
55460;BME280;41326;45.302;-122.946;2022-12-18T07:15:55;101287.23;;;17.02;47.51
55460;BME280;41326;45.302;-122.946;2022-12-18T07:18:25;101290.56;;;17.04;47.43
55460;BME280;41326;45.302;-122.946;2022-12-18T07:20:55;101290.41;;;16.99;47.58
55460;BME280;41326;45.302;-122.946;2022-12-18T07:23:25;101291.28;;;16.94;47.66
55460;BME280;41326;45.302;-122.946;2022-12-18T07:25:55;101293.07;;;16.94;47.57
55460;BME280;41326;45.302;-122.946;2022-12-18T07:28:26;101293.60;;;16.90;47.91
55460;BME280;41326;45.302;-122.946;2022-12-18T07:30:56;101294.27;;;16.91;47.84
55460;BME280;41326;45.302;-122.946;2022-12-18T07:33:27;101293.00;;;16.89;47.85
55460;BME280;41326;45.302;-122.946;2022-12-18T07:35:58;101290.83;;;16.87;47.86
55460;BME280;41326;45.302;-122.946;2022-12-18T07:38:27;101288.04;;;16.84;47.85
55460;BME280;41326;45.302;-122.946;2022-12-18T07:41:00;101286.72;;;16.84;47.84
55460;BME280;41326;45.302;-122.946;2022-12-18T07:43:28;101285.30;;;16.84;47.77
55460;BME280;41326;45.302;-122.946;2022-12-18T07:45:58;101287.79;;;16.82;47.74
55460;BME280;41326;45.302;-122.946;2022-12-18T07:48:28;101280.11;;;16.78;47.79
55460;BME280;41326;45.302;-122.946;2022-12-18T07:50:59;101282.56;;;16.73;48.04
55460;BME280;41326;45.302;-122.946;2022-12-18T07:53:28;101289.51;;;16.74;48.00
55460;BME280;41326;45.302;-122.946;2022-12-18T07:56:01;101278.47;;;16.72;47.99
55460;BME280;41326;45.302;-122.946;2022-12-18T07:58:29;101273.83;;;16.75;47.87
55460;BME280;41326;45.302;-122.946;2022-12-18T08:01:02;101268.85;;;16.76;47.83
55460;BME280;41326;45.302;-122.946;2022-12-18T08:03:29;101263.31;;;16.71;47.93
55460;BME280;41326;45.302;-122.946;2022-12-18T08:06:06;101259.09;;;16.68;47.86
55460;BME280;41326;45.302;-122.946;2022-12-18T08:08:30;101256.70;;;16.68;47.86
55460;BME280;41326;45.302;-122.946;2022-12-18T08:11:00;101258.99;;;16.67;47.92
55460;BME280;41326;45.302;-122.946;2022-12-18T08:13:30;101259.80;;;16.62;48.00
55460;BME280;41326;45.302;-122.946;2022-12-18T08:16:03;101260.35;;;16.63;47.94
55460;BME280;41326;45.302;-122.946;2022-12-18T08:18:33;101256.22;;;16.62;47.95
55460;BME280;41326;45.302;-122.946;2022-12-18T08:23:33;101261.63;;;16.55;48.08
55460;BME280;41326;45.302;-122.946;2022-12-18T08:26:04;101262.26;;;16.53;48.04
55460;BME280;41326;45.302;-122.946;2022-12-18T08:28:33;101263.50;;;16.52;48.01
55460;BME280;41326;45.302;-122.946;2022-12-18T08:31:03;101258.73;;;16.52;48.21
55460;BME280;41326;45.302;-122.946;2022-12-18T08:33:34;101255.52;;;16.52;48.16
55460;BME280;41326;45.302;-122.946;2022-12-18T08:36:05;101253.44;;;16.50;48.14
55460;BME280;41326;45.302;-122.946;2022-12-18T08:38:34;101252.20;;;16.47;48.21
55460;BME280;41326;45.302;-122.946;2022-12-18T08:41:05;101254.91;;;16.46;48.19
55460;BME280;41326;45.302;-122.946;2022-12-18T08:43:35;101253.57;;;16.43;48.26
55460;BME280;41326;45.302;-122.946;2022-12-18T08:46:05;101249.77;;;16.40;48.32
55460;BME280;41326;45.302;-122.946;2022-12-18T08:48:35;101249.15;;;16.37;48.60
55460;BME280;41326;45.302;-122.946;2022-12-18T08:51:06;101248.25;;;16.35;48.80
55460;BME280;41326;45.302;-122.946;2022-12-18T08:53:36;101249.56;;;16.32;48.97
55460;BME280;41326;45.302;-122.946;2022-12-18T08:56:07;101251.01;;;16.34;48.82
55460;BME280;41326;45.302;-122.946;2022-12-18T08:58:36;101249.91;;;16.34;48.76
55460;BME280;41326;45.302;-122.946;2022-12-18T09:01:08;101245.54;;;16.31;48.80
55460;BME280;41326;45.302;-122.946;2022-12-18T09:03:37;101241.24;;;16.28;48.88
55460;BME280;41326;45.302;-122.946;2022-12-18T09:06:09;101236.54;;;16.25;48.94
55460;BME280;41326;45.302;-122.946;2022-12-18T09:08:41;101229.26;;;16.23;49.10
55460;BME280;41326;45.302;-122.946;2022-12-18T09:11:12;101224.05;;;16.23;49.19
55460;BME280;41326;45.302;-122.946;2022-12-18T09:13:39;101223.96;;;16.22;49.35
55460;BME280;41326;45.302;-122.946;2022-12-18T09:16:09;101226.66;;;16.21;49.41
55460;BME280;41326;45.302;-122.946;2022-12-18T09:18:39;101229.28;;;16.20;49.46
55460;BME280;41326;45.302;-122.946;2022-12-18T09:21:15;101232.07;;;16.20;49.38
55460;BME280;41326;45.302;-122.946;2022-12-18T09:23:41;101230.97;;;16.19;49.40
55460;BME280;41326;45.302;-122.946;2022-12-18T09:26:11;101232.48;;;16.15;49.44
55460;BME280;41326;45.302;-122.946;2022-12-18T09:28:41;101233.25;;;16.10;49.70
55460;BME280;41326;45.302;-122.946;2022-12-18T09:31:16;101232.14;;;16.10;49.78
55460;BME280;41326;45.302;-122.946;2022-12-18T09:33:42;101231.41;;;16.11;49.71
55460;BME280;41326;45.302;-122.946;2022-12-18T09:36:15;101228.85;;;16.09;49.72
55460;BME280;41326;45.302;-122.946;2022-12-18T09:38:43;101230.80;;;16.08;49.79
55460;BME280;41326;45.302;-122.946;2022-12-18T09:41:22;101230.09;;;16.08;49.79
55460;BME280;41326;45.302;-122.946;2022-12-18T09:43:48;101226.53;;;16.05;49.87
55460;BME280;41326;45.302;-122.946;2022-12-18T09:46:17;101228.90;;;16.02;49.92
55460;BME280;41326;45.302;-122.946;2022-12-18T09:48:47;101232.33;;;15.97;50.19
55460;BME280;41326;45.302;-122.946;2022-12-18T09:51:18;101229.23;;;15.96;50.33
55460;BME280;41326;45.302;-122.946;2022-12-18T09:53:49;101229.00;;;15.94;50.31
55460;BME280;41326;45.302;-122.946;2022-12-18T09:56:19;101226.09;;;15.94;50.29
55460;BME280;41326;45.302;-122.946;2022-12-18T09:58:50;101224.06;;;15.97;50.23
55460;BME280;41326;45.302;-122.946;2022-12-18T10:01:18;101218.69;;;15.95;50.18
55460;BME280;41326;45.302;-122.946;2022-12-18T10:03:47;101220.20;;;15.93;50.31
55460;BME280;41326;45.302;-122.946;2022-12-18T10:06:22;101221.72;;;15.91;50.37
55460;BME280;41326;45.302;-122.946;2022-12-18T10:08:51;101221.70;;;15.89;50.64
55460;BME280;41326;45.302;-122.946;2022-12-18T10:11:28;101223.01;;;15.88;50.65
55460;BME280;41326;45.302;-122.946;2022-12-18T10:13:54;101226.55;;;15.87;50.64
55460;BME280;41326;45.302;-122.946;2022-12-18T10:16:22;101226.09;;;15.86;50.68
55460;BME280;41326;45.302;-122.946;2022-12-18T10:19:01;101226.08;;;15.86;50.65
55460;BME280;41326;45.302;-122.946;2022-12-18T10:21:21;101230.76;;;15.84;50.72
55460;BME280;41326;45.302;-122.946;2022-12-18T10:23:54;101234.18;;;15.82;50.83
55460;BME280;41326;45.302;-122.946;2022-12-18T10:26:20;101237.15;;;15.78;50.91
55460;BME280;41326;45.302;-122.946;2022-12-18T10:28:50;101239.09;;;15.76;51.02
55460;BME280;41326;45.302;-122.946;2022-12-18T10:31:22;101237.49;;;15.74;51.18
55460;BME280;41326;45.302;-122.946;2022-12-18T10:33:51;101237.32;;;15.76;50.99
55460;BME280;41326;45.302;-122.946;2022-12-18T10:36:22;101238.62;;;15.75;50.97
55460;BME280;41326;45.302;-122.946;2022-12-18T10:38:51;101234.50;;;15.73;51.05
55460;BME280;41326;45.302;-122.946;2022-12-18T10:41:26;101234.71;;;15.72;51.04
55460;BME280;41326;45.302;-122.946;2022-12-18T10:46:25;101234.86;;;15.67;51.14
55460;BME280;41326;45.302;-122.946;2022-12-18T10:48:56;101236.22;;;15.63;51.35
55460;BME280;41326;45.302;-122.946;2022-12-18T10:51:27;101236.33;;;15.63;51.41
55460;BME280;41326;45.302;-122.946;2022-12-18T10:53:59;101237.44;;;15.64;51.33
55460;BME280;41326;45.302;-122.946;2022-12-18T10:56:26;101237.32;;;15.61;51.48
55460;BME280;41326;45.302;-122.946;2022-12-18T10:59:02;101232.67;;;15.60;51.52
55460;BME280;41326;45.302;-122.946;2022-12-18T11:01:24;101232.72;;;15.60;51.52
55460;BME280;41326;45.302;-122.946;2022-12-18T11:04:00;101232.22;;;15.57;51.62
55460;BME280;41326;45.302;-122.946;2022-12-18T11:06:26;101231.58;;;15.56;51.73
55460;BME280;41326;45.302;-122.946;2022-12-18T11:09:01;101226.94;;;15.52;51.96
55460;BME280;41326;45.302;-122.946;2022-12-18T11:11:27;101223.56;;;15.51;52.01
55460;BME280;41326;45.302;-122.946;2022-12-18T11:14:02;101222.32;;;15.52;51.98
55460;BME280;41326;45.302;-122.946;2022-12-18T11:16:26;101220.66;;;15.52;51.92
55460;BME280;41326;45.302;-122.946;2022-12-18T11:21:27;101219.00;;;15.48;52.00
55460;BME280;41326;45.302;-122.946;2022-12-18T11:23:58;101217.46;;;15.46;52.13
55460;BME280;41326;45.302;-122.946;2022-12-18T11:26:33;101212.68;;;15.45;52.23
55460;BME280;41326;45.302;-122.946;2022-12-18T11:29:08;101208.88;;;15.43;52.27
55460;BME280;41326;45.302;-122.946;2022-12-18T11:32:41;101209.14;;;15.40;52.36
55460;BME280;41326;45.302;-122.946;2022-12-18T11:35:11;101210.15;;;15.40;52.34
55460;BME280;41326;45.302;-122.946;2022-12-18T11:37:37;101206.82;;;15.38;52.30
55460;BME280;41326;45.302;-122.946;2022-12-18T11:40:10;101201.71;;;15.35;52.45
55460;BME280;41326;45.302;-122.946;2022-12-18T11:42:42;101194.99;;;15.37;52.37
55460;BME280;41326;45.302;-122.946;2022-12-18T11:47:44;101196.47;;;15.36;52.36
55460;BME280;41326;45.302;-122.946;2022-12-18T11:50:13;101192.12;;;15.33;52.44
55460;BME280;41326;45.302;-122.946;2022-12-18T11:52:41;101190.20;;;15.34;52.35
55460;BME280;41326;45.302;-122.946;2022-12-18T11:55:16;101187.68;;;15.32;52.42
55460;BME280;41326;45.302;-122.946;2022-12-18T11:57:44;101185.68;;;15.31;52.41
55460;BME280;41326;45.302;-122.946;2022-12-18T12:00:12;101182.41;;;15.30;52.41
55460;BME280;41326;45.302;-122.946;2022-12-18T12:02:56;101178.60;;;15.28;52.43
55460;BME280;41326;45.302;-122.946;2022-12-18T12:05:22;101175.43;;;15.27;52.49
55460;BME280;41326;45.302;-122.946;2022-12-18T12:07:44;101178.14;;;15.27;52.50
55460;BME280;41326;45.302;-122.946;2022-12-18T12:10:18;101177.18;;;15.26;52.56
55460;BME280;41326;45.302;-122.946;2022-12-18T12:12:50;101174.90;;;15.25;52.56
55460;BME280;41326;45.302;-122.946;2022-12-18T12:15:16;101173.66;;;15.26;52.48
55460;BME280;41326;45.302;-122.946;2022-12-18T12:17:45;101167.20;;;15.24;52.51
55460;BME280;41326;45.302;-122.946;2022-12-18T12:20:15;101162.93;;;15.25;52.46
55460;BME280;41326;45.302;-122.946;2022-12-18T12:22:45;101159.63;;;15.26;52.41
55460;BME280;41326;45.302;-122.946;2022-12-18T12:25:23;101156.13;;;15.22;52.52
55460;BME280;41326;45.302;-122.946;2022-12-18T12:27:47;101154.31;;;15.21;52.57
55460;BME280;41326;45.302;-122.946;2022-12-18T12:30:16;101154.31;;;15.19;52.58
55460;BME280;41326;45.302;-122.946;2022-12-18T12:32:51;101153.24;;;15.21;52.47
55460;BME280;41326;45.302;-122.946;2022-12-18T12:35:22;101155.27;;;15.20;52.46
55460;BME280;41326;45.302;-122.946;2022-12-18T12:37:50;101152.18;;;15.18;52.51
55460;BME280;41326;45.302;-122.946;2022-12-18T12:40:20;101153.19;;;15.19;52.43
55460;BME280;41326;45.302;-122.946;2022-12-18T12:42:46;101151.75;;;15.17;52.46
55460;BME280;41326;45.302;-122.946;2022-12-18T12:45:22;101152.11;;;15.14;52.55
55460;BME280;41326;45.302;-122.946;2022-12-18T12:47:47;101154.98;;;15.12;52.63
55460;BME280;41326;45.302;-122.946;2022-12-18T12:50:19;101156.37;;;15.10;52.79
55460;BME280;41326;45.302;-122.946;2022-12-18T12:52:47;101161.08;;;15.10;52.75